Time;durP1;ratioP1;P1;durP2;ratioP2;P2;SDS_P1;SDS_P2;PMS_P1;PMS_P2;Temp;Humidity;BMP_temperature;BMP_pressure;BME280_temperature;BME280_humidity;BME280_pressure;Samples;Min_cycle;Max_cycle;Signal;HPM_P1;HPM_P2
2023/06/02 00:01:00;;;;;;;72.10;53.38;;;17.20;72.90;;;;;;4942828;28;85127;-51
2023/06/02 00:03:31;;;;;;;73.00;53.85;;;17.20;72.80;;;;;;4943634;28;84873;-49
2023/06/02 00:05:59;;;;;;;71.40;52.75;;;17.20;72.90;;;;;;4953655;28;88316;-55
2023/06/02 00:08:26;;;;;;;73.22;54.25;;;17.20;72.80;;;;;;4944218;28;85533;-50
2023/06/02 00:10:52;;;;;;;71.88;51.83;;;17.10;72.20;;;;;;4944904;28;85555;-51
2023/06/02 00:13:17;;;;;;;72.88;53.95;;;17.20;73.30;;;;;;4939372;28;84990;-50
2023/06/02 00:15:43;;;;;;;71.63;52.47;;;17.20;72.20;;;;;;4947009;28;85228;-51
2023/06/02 00:18:10;;;;;;;71.30;52.45;;;17.30;72.90;;;;;;4947091;28;85404;-49
2023/06/02 00:20:36;;;;;;;73.57;53.42;;;17.30;72.30;;;;;;4944605;28;86583;-47
2023/06/02 00:23:02;;;;;;;72.97;53.17;;;17.30;72.40;;;;;;4942213;28;85040;-51
2023/06/02 00:25:28;;;;;;;73.55;54.22;;;17.30;72.40;;;;;;4944441;28;86495;-52
2023/06/02 00:27:54;;;;;;;72.63;52.60;;;17.20;72.00;;;;;;4941209;28;85818;-49
2023/06/02 00:30:20;;;;;;;70.93;52.42;;;17.20;72.70;;;;;;4941466;28;85162;-50
2023/06/02 00:32:45;;;;;;;74.95;54.53;;;17.20;72.70;;;;;;4941520;28;85051;-53
2023/06/02 00:35:11;;;;;;;72.90;53.53;;;17.20;72.20;;;;;;4941142;28;86084;-48
2023/06/02 00:37:37;;;;;;;74.53;53.60;;;17.20;72.20;;;;;;4943077;28;85546;-51
2023/06/02 00:40:03;;;;;;;73.10;52.92;;;17.20;72.00;;;;;;4940461;28;85051;-46
2023/06/02 00:42:29;;;;;;;73.03;53.08;;;17.20;72.20;;;;;;4938887;28;86218;-48
2023/06/02 00:44:55;;;;;;;72.32;52.83;;;17.10;72.60;;;;;;4944170;28;86143;-50
2023/06/02 00:47:21;;;;;;;71.22;52.78;;;17.10;72.50;;;;;;4942518;28;87403;-50
2023/06/02 00:49:46;;;;;;;71.18;52.70;;;17.10;72.40;;;;;;4947807;28;87827;-52
2023/06/02 00:52:15;;;;;;;70.95;52.67;;;17.10;72.50;;;;;;4947838;28;84992;-50
2023/06/02 00:54:41;;;;;;;72.95;53.47;;;17.20;72.60;;;;;;4947097;28;86327;-46
2023/06/02 00:57:07;;;;;;;72.28;52.95;;;17.10;72.20;;;;;;4948219;28;87089;-50
2023/06/02 00:59:33;;;;;;;73.50;53.45;;;17.10;72.30;;;;;;4941784;28;85574;-54
2023/06/02 01:02:00;;;;;;;71.68;52.88;;;17.10;72.50;;;;;;4940916;28;86038;-50
2023/06/02 01:04:26;;;;;;;73.18;53.15;;;17.10;72.80;;;;;;4947050;28;86125;-50
2023/06/02 01:06:52;;;;;;;70.90;52.17;;;17.10;72.40;;;;;;4946613;28;85074;-39
2023/06/02 01:09:19;;;;;;;71.93;53.42;;;17.10;72.90;;;;;;4942373;28;88201;-38
2023/06/02 01:11:48;;;;;;;70.65;52.08;;;17.10;72.10;;;;;;4948520;28;84901;-38
2023/06/02 01:14:14;;;;;;;71.90;53.10;;;17.10;72.90;;;;;;4944730;28;89793;-38
2023/06/02 01:16:40;;;;;;;71.47;52.55;;;17.10;72.60;;;;;;4944723;28;88859;-41
2023/06/02 01:19:13;;;;;;;72.07;53.30;;;17.10;72.80;;;;;;4944138;28;89494;-40
2023/06/02 01:21:40;;;;;;;70.53;52.25;;;17.10;72.50;;;;;;4944206;28;89410;-39
2023/06/02 01:24:06;;;;;;;71.20;53.22;;;17.10;72.70;;;;;;4945423;28;91186;-39
2023/06/02 01:26:34;;;;;;;71.68;52.95;;;17.20;72.40;;;;;;4946408;28;90125;-38
2023/06/02 01:29:01;;;;;;;73.05;53.10;;;17.10;72.20;;;;;;4941328;28;90765;-39
2023/06/02 01:31:33;;;;;;;74.63;54.33;;;17.10;72.10;;;;;;4945189;28;89908;-40
2023/06/02 01:34:05;;;;;;;71.13;53.15;;;17.00;72.30;;;;;;4942735;28;89915;-39
2023/06/02 01:36:33;;;;;;;72.15;52.65;;;17.10;72.60;;;;;;4947488;28;90029;-38
2023/06/02 01:39:01;;;;;;;71.15;53.00;;;17.10;72.60;;;;;;4941185;28;89981;-38
2023/06/02 01:41:27;;;;;;;73.25;53.45;;;17.10;72.00;;;;;;4948366;28;89128;-40
2023/06/02 01:43:55;;;;;;;72.32;53.38;;;17.10;72.00;;;;;;4940853;28;89813;-38
2023/06/02 01:46:24;;;;;;;71.10;52.08;;;17.10;72.30;;;;;;4934647;28;89967;-42
2023/06/02 01:48:53;;;;;;;71.20;52.90;;;17.10;72.70;;;;;;4943284;28;90699;-39
2023/06/02 01:51:19;;;;;;;72.05;53.38;;;17.10;72.10;;;;;;4947324;28;89972;-38
2023/06/02 01:53:45;;;;;;;72.93;53.05;;;17.10;72.30;;;;;;4940111;28;89538;-40
2023/06/02 01:56:11;;;;;;;73.03;53.30;;;17.10;72.10;;;;;;4940066;28;90641;-39
2023/06/02 01:58:38;;;;;;;72.82;53.10;;;17.00;72.20;;;;;;4942111;28;89871;-38
2023/06/02 02:01:03;;;;;;;72.13;53.40;;;17.00;72.30;;;;;;4935444;28;90230;-38
2023/06/02 02:03:30;;;;;;;71.47;52.63;;;17.00;72.20;;;;;;4935805;28;90927;-38
2023/06/02 02:05:56;;;;;;;70.90;53.08;;;17.10;72.50;;;;;;4944898;28;88817;-38
2023/06/02 02:08:22;;;;;;;70.95;53.00;;;17.10;72.50;;;;;;4939217;28;91361;-41
2023/06/02 02:10:47;;;;;;;71.88;52.50;;;17.10;72.20;;;;;;4942590;28;89752;-41
2023/06/02 02:13:13;;;;;;;70.43;52.40;;;17.10;72.10;;;;;;4943944;28;91173;-39
2023/06/02 02:15:39;;;;;;;70.50;52.65;;;17.00;72.30;;;;;;4942495;28;89807;-39
2023/06/02 02:18:05;;;;;;;71.70;52.88;;;17.10;72.40;;;;;;4945770;28;90833;-38
2023/06/02 02:20:31;;;;;;;70.90;52.80;;;17.00;72.90;;;;;;4941596;28;91187;-41
2023/06/02 02:22:56;;;;;;;71.05;52.88;;;17.00;72.10;;;;;;4942346;28;89762;-39
2023/06/02 02:25:22;;;;;;;70.40;52.60;;;17.10;72.20;;;;;;4939934;28;89756;-39
2023/06/02 02:27:48;;;;;;;71.53;52.55;;;17.10;72.30;;;;;;4945742;28;89825;-39
2023/06/02 02:30:14;;;;;;;69.82;52.38;;;17.10;71.90;;;;;;4933737;28;89238;-39
2023/06/02 02:32:43;;;;;;;71.50;52.60;;;17.10;71.80;;;;;;4939464;28;89924;-38
2023/06/02 02:35:09;;;;;;;70.65;52.40;;;17.10;71.90;;;;;;4944570;28;91463;-38
2023/06/02 02:37:36;;;;;;;69.75;51.97;;;17.20;71.80;;;;;;4942422;28;92743;-39
2023/06/02 02:40:03;;;;;;;70.75;52.05;;;17.10;71.60;;;;;;4942301;28;89964;-39
2023/06/02 02:42:28;;;;;;;70.38;52.35;;;17.10;71.60;;;;;;4945579;28;89666;-38
2023/06/02 02:44:54;;;;;;;71.53;52.25;;;17.10;71.50;;;;;;4942528;28;90044;-39
2023/06/02 02:47:20;;;;;;;69.78;52.28;;;17.10;71.30;;;;;;4945197;28;90273;-39
2023/06/02 02:49:47;;;;;;;70.53;51.90;;;17.10;71.50;;;;;;4945782;28;89562;-39
2023/06/02 02:52:13;;;;;;;70.70;51.80;;;17.10;71.30;;;;;;4939928;28;91114;-38
2023/06/02 02:54:39;;;;;;;70.65;52.22;;;17.00;71.70;;;;;;4944123;28;88877;-40
2023/06/02 02:57:07;;;;;;;71.88;52.35;;;17.00;71.50;;;;;;4945297;28;95203;-39
2023/06/02 02:59:34;;;;;;;70.53;52.65;;;17.00;71.80;;;;;;4938214;28;89413;-40
2023/06/02 03:01:59;;;;;;;70.40;52.42;;;17.00;71.80;;;;;;4943261;28;90707;-38
2023/06/02 03:04:25;;;;;;;71.22;52.47;;;17.00;71.70;;;;;;4943544;28;90390;-39
2023/06/02 03:06:54;;;;;;;71.05;53.10;;;16.90;71.40;;;;;;4945823;28;89778;-40
2023/06/02 03:09:20;;;;;;;71.30;53.50;;;17.00;71.90;;;;;;4942676;28;89755;-39
2023/06/02 03:11:46;;;;;;;70.82;53.03;;;16.90;71.80;;;;;;4942256;28;90354;-41
2023/06/02 03:14:12;;;;;;;69.35;51.97;;;16.90;71.90;;;;;;4940197;28;90245;-39
2023/06/02 03:16:41;;;;;;;69.45;51.92;;;16.90;71.90;;;;;;4946787;28;94120;-50
2023/06/02 03:19:14;;;;;;;70.57;52.90;;;17.00;71.60;;;;;;4944372;28;90898;-45
2023/06/02 03:21:44;;;;;;;69.85;52.88;;;16.90;71.30;;;;;;4943489;28;89369;-46
2023/06/02 03:24:15;;;;;;;70.25;52.03;;;16.90;71.70;;;;;;4942838;28;90662;-49
2023/06/02 03:26:41;;;;;;;;;;;16.90;71.90;;;;;;4946833;28;90671;-47
2023/06/02 03:29:09;;;;;;;69.28;51.70;;;16.90;71.80;;;;;;4941981;28;90034;-52
2023/06/02 03:31:35;;;;;;;71.38;52.88;;;16.90;71.70;;;;;;4944103;28;91274;-50
2023/06/02 03:34:02;;;;;;;71.80;53.25;;;16.80;72.20;;;;;;4944380;28;90589;-55
2023/06/02 03:36:28;;;;;;;72.13;53.90;;;16.80;71.70;;;;;;4938247;28;89743;-51
2023/06/02 03:38:54;;;;;;;71.00;52.65;;;16.80;71.70;;;;;;4943913;28;89709;-49
2023/06/02 03:41:20;;;;;;;71.32;52.40;;;16.70;71.80;;;;;;4944822;28;90113;-53
2023/06/02 03:43:46;;;;;;;71.88;53.30;;;16.70;71.80;;;;;;4941827;28;89264;-50
2023/06/02 03:46:11;;;;;;;71.70;52.92;;;16.70;71.50;;;;;;4943183;28;89654;-46
2023/06/02 03:48:37;;;;;;;70.40;52.53;;;16.70;71.80;;;;;;4942851;28;90083;-52
2023/06/02 03:51:03;;;;;;;71.35;53.28;;;16.60;72.30;;;;;;4941602;28;90765;-53
2023/06/02 03:53:30;;;;;;;70.20;52.58;;;16.60;71.90;;;;;;4945339;28;89978;-51
2023/06/02 03:55:56;;;;;;;71.15;52.45;;;16.60;72.00;;;;;;4941480;28;89474;-52
2023/06/02 03:58:23;;;;;;;74.15;54.05;;;16.60;72.20;;;;;;4943006;28;92999;-47
2023/06/02 04:00:49;;;;;;;72.07;53.80;;;16.60;71.90;;;;;;4942170;28;89684;-55
2023/06/02 04:03:16;;;;;;;70.93;52.55;;;16.60;71.80;;;;;;4940514;28;89937;-51
2023/06/02 04:05:43;;;;;;;73.85;53.50;;;16.60;71.60;;;;;;4941687;28;89576;-47
2023/06/02 04:08:10;;;;;;;70.95;52.53;;;16.60;72.10;;;;;;4942443;28;88676;-50
2023/06/02 04:10:36;;;;;;;70.88;52.20;;;16.60;72.40;;;;;;4941812;28;90519;-48
2023/06/02 04:13:01;;;;;;;70.60;51.95;;;16.60;72.10;;;;;;4939434;28;91147;-50
2023/06/02 04:15:28;;;;;;;68.95;51.70;;;16.60;72.30;;;;;;4939740;28;91048;-52
2023/06/02 04:17:53;;;;;;;74.70;53.25;;;16.60;72.10;;;;;;4942103;28;91340;-45
2023/06/02 04:20:19;;;;;;;71.43;52.63;;;16.50;72.20;;;;;;4937911;28;89922;-51
2023/06/02 04:22:45;;;;;;;69.05;52.15;;;16.60;72.10;;;;;;4953948;28;90512;-50
2023/06/02 04:25:11;;;;;;;70.53;52.92;;;16.60;72.10;;;;;;4941755;28;90435;-54
2023/06/02 04:27:36;;;;;;;71.18;52.28;;;16.60;71.90;;;;;;4938830;28;90905;-49
2023/06/02 04:30:03;;;;;;;69.80;52.20;;;16.50;71.90;;;;;;4941598;28;90429;-50
2023/06/02 04:32:30;;;;;;;71.40;52.40;;;16.50;72.00;;;;;;4937212;28;88753;-53
2023/06/02 04:34:56;;;;;;;69.78;51.85;;;16.50;72.10;;;;;;4950324;28;90093;-45
2023/06/02 04:37:21;;;;;;;68.88;51.55;;;16.50;71.90;;;;;;4937741;28;89968;-46
2023/06/02 04:39:50;;;;;;;71.05;52.35;;;16.60;72.30;;;;;;4939654;28;91718;-50
2023/06/02 04:42:16;;;;;;;68.97;52.00;;;16.60;71.90;;;;;;4933141;28;89852;-49
2023/06/02 04:44:44;;;;;;;70.68;52.38;;;16.70;71.70;;;;;;4932202;28;90162;-48
2023/06/02 04:47:10;;;;;;;70.25;52.25;;;16.60;71.90;;;;;;4940889;28;89510;-48
2023/06/02 04:49:36;;;;;;;70.10;51.70;;;16.60;71.80;;;;;;4939817;28;89566;-52
2023/06/02 04:52:09;;;;;;;69.07;51.92;;;16.60;72.10;;;;;;4941432;28;89968;-48
2023/06/02 04:54:35;;;;;;;70.85;52.22;;;16.60;71.90;;;;;;4939293;28;89808;-52
2023/06/02 04:57:05;;;;;;;69.72;51.92;;;16.60;71.70;;;;;;4942121;28;88898;-39
2023/06/02 04:59:33;;;;;;;71.75;52.10;;;16.70;71.60;;;;;;4942866;28;90184;-39
2023/06/02 05:02:00;;;;;;;71.57;51.92;;;16.60;71.30;;;;;;4936203;28;90309;-39
2023/06/02 05:04:26;;;;;;;71.35;51.85;;;16.60;71.60;;;;;;4936215;28;90693;-40
2023/06/02 05:06:52;;;;;;;71.38;52.38;;;16.50;71.50;;;;;;4936565;28;89492;-50
2023/06/02 05:09:18;;;;;;;70.43;52.17;;;16.60;72.10;;;;;;4940261;28;89953;-50
2023/06/02 05:11:44;;;;;;;71.15;51.88;;;16.70;72.80;;;;;;4942692;28;89493;-48
2023/06/02 05:14:10;;;;;;;69.97;52.25;;;16.70;72.50;;;;;;4939769;28;89642;-49
2023/06/02 05:16:36;;;;;;;70.13;52.33;;;16.70;72.60;;;;;;4939087;28;95110;-54
2023/06/02 05:19:05;;;;;;;73.28;52.30;;;16.70;72.00;;;;;;4941709;28;90341;-57
2023/06/02 05:21:31;;;;;;;71.55;52.45;;;16.70;71.70;;;;;;4940497;28;88780;-50
2023/06/02 05:23:58;;;;;;;73.40;52.28;;;16.70;71.50;;;;;;4941749;28;89906;-51
2023/06/02 05:26:24;;;;;;;72.30;51.88;;;16.70;71.70;;;;;;4940666;28;90055;-52
2023/06/02 05:28:50;;;;;;;72.18;52.33;;;16.80;71.40;;;;;;4936004;28;91577;-50
2023/06/02 05:31:17;;;;;;;71.40;52.03;;;16.90;71.60;;;;;;4931857;28;90448;-48
2023/06/02 05:33:42;;;;;;;71.68;52.15;;;16.90;71.30;;;;;;4937448;28;89726;-49
2023/06/02 05:36:08;;;;;;;72.32;52.38;;;16.90;71.30;;;;;;4935151;28;89565;-40
2023/06/02 05:38:34;;;;;;;72.82;52.20;;;16.90;71.20;;;;;;4938230;28;90942;-39
2023/06/02 05:41:00;;;;;;;73.07;52.15;;;16.90;71.10;;;;;;4940642;28;90321;-39
2023/06/02 05:43:26;;;;;;;72.07;52.38;;;16.90;71.30;;;;;;4941190;28;90066;-41
2023/06/02 05:45:52;;;;;;;73.65;52.25;;;16.90;71.00;;;;;;4943742;28;89410;-41
2023/06/02 05:48:18;;;;;;;72.60;51.97;;;16.90;70.80;;;;;;4940941;28;90704;-39
2023/06/02 05:50:43;;;;;;;75.47;52.50;;;16.90;70.80;;;;;;4936659;28;90903;-39
2023/06/02 05:53:09;;;;;;;73.03;52.55;;;16.90;71.10;;;;;;4944220;28;90850;-39
2023/06/02 05:55:35;;;;;;;72.78;52.22;;;16.90;70.70;;;;;;4943788;28;90765;-40
2023/06/02 05:58:01;;;;;;;75.80;52.10;;;16.90;70.70;;;;;;4945420;28;89880;-38
2023/06/02 06:00:26;;;;;;;74.75;52.42;;;16.90;70.90;;;;;;4942415;28;89783;-39
2023/06/02 06:02:53;;;;;;;71.60;52.03;;;16.90;70.90;;;;;;4945096;28;89513;-39
2023/06/02 06:05:18;;;;;;;72.70;51.85;;;16.90;70.60;;;;;;4937433;28;90146;-39
2023/06/02 06:07:44;;;;;;;73.18;52.25;;;17.00;70.40;;;;;;4940037;28;94604;-39
2023/06/02 06:10:10;;;;;;;73.70;52.83;;;16.90;70.60;;;;;;4945689;28;89397;-38
2023/06/02 06:12:36;;;;;;;72.72;52.15;;;16.90;70.40;;;;;;4942930;28;89873;-39
2023/06/02 06:15:01;;;;;;;72.00;52.20;;;16.90;70.40;;;;;;4938728;28;89585;-41
2023/06/02 06:17:27;;;;;;;73.07;52.42;;;16.90;70.30;;;;;;4939760;28;91131;-42
2023/06/02 06:19:53;;;;;;;78.22;54.10;;;16.90;70.70;;;;;;4944606;28;91433;-39
2023/06/02 06:22:18;;;;;;;72.38;52.20;;;16.90;70.40;;;;;;4947195;28;89501;-42
2023/06/02 06:24:44;;;;;;;79.50;53.80;;;16.90;70.60;;;;;;4943950;28;89393;-40
2023/06/02 06:27:11;;;;;;;76.07;52.53;;;16.90;70.50;;;;;;4939657;28;89979;-39
2023/06/02 06:29:37;;;;;;;76.68;53.90;;;16.90;70.60;;;;;;4943184;28;89655;-39
2023/06/02 06:32:05;;;;;;;77.07;53.63;;;17.00;70.40;;;;;;4942876;28;91242;-39
2023/06/02 06:34:31;;;;;;;75.25;53.10;;;17.00;70.60;;;;;;4944842;28;92745;-40
2023/06/02 06:36:57;;;;;;;76.20;53.63;;;17.00;70.60;;;;;;4939028;28;90667;-39
2023/06/02 06:39:22;;;;;;;77.78;54.00;;;17.00;69.80;;;;;;4942984;28;89369;-40
2023/06/02 06:41:48;;;;;;;74.55;53.63;;;16.90;70.00;;;;;;4941008;28;91151;-39
2023/06/02 06:44:14;;;;;;;74.82;53.35;;;16.90;70.50;;;;;;4934289;28;90551;-40
2023/06/02 06:46:40;;;;;;;77.35;53.50;;;16.90;70.20;;;;;;4933992;28;89809;-41
2023/06/02 06:49:06;;;;;;;78.43;54.70;;;16.90;70.40;;;;;;4937603;28;90108;-39
2023/06/02 06:51:31;;;;;;;76.55;54.05;;;16.90;69.80;;;;;;4939321;28;89634;-39
2023/06/02 06:53:57;;;;;;;77.07;53.17;;;16.90;70.40;;;;;;4935838;28;90232;-40
2023/06/02 06:56:23;;;;;;;74.97;53.47;;;17.00;70.20;;;;;;4935741;28;89900;-39
2023/06/02 06:58:49;;;;;;;79.13;53.30;;;16.90;69.50;;;;;;4940993;28;93891;-39
2023/06/02 07:01:14;;;;;;;74.45;53.58;;;16.90;69.50;;;;;;4940231;28;89879;-39
2023/06/02 07:03:40;;;;;;;78.95;54.08;;;17.00;69.50;;;;;;4942616;28;89872;-38
2023/06/02 07:06:06;;;;;;;77.45;53.60;;;16.90;68.80;;;;;;4932231;28;90526;-40
2023/06/02 07:08:31;;;;;;;77.38;53.47;;;16.90;69.30;;;;;;4939671;28;90221;-41
2023/06/02 07:10:57;;;;;;;74.38;53.08;;;17.00;69.30;;;;;;4943122;28;90203;-40
2023/06/02 07:13:27;;;;;;;77.60;53.25;;;17.00;69.00;;;;;;4943762;28;89461;-39
2023/06/02 07:15:52;;;;;;;73.80;52.88;;;17.00;69.50;;;;;;4931525;28;89736;-39
2023/06/02 07:18:18;;;;;;;75.03;53.20;;;17.10;68.80;;;;;;4929288;28;90079;-39
2023/06/02 07:20:44;;;;;;;76.95;53.42;;;17.10;68.20;;;;;;4937021;28;90104;-40
2023/06/02 07:23:09;;;;;;;76.20;53.08;;;17.10;68.60;;;;;;4935135;28;88818;-41
2023/06/02 07:25:36;;;;;;;76.13;53.05;;;17.20;68.40;;;;;;4939866;28;90020;-39
2023/06/02 07:28:05;;;;;;;74.05;53.00;;;17.30;68.10;;;;;;4940936;28;90922;-39
2023/06/02 07:30:35;;;;;;;78.03;53.42;;;17.30;68.10;;;;;;4937772;28;96357;-41
2023/06/02 07:33:00;;;;;;;73.70;52.63;;;17.40;67.70;;;;;;4933917;28;89732;-39
2023/06/02 07:35:26;;;;;;;76.90;53.15;;;17.40;67.30;;;;;;4936132;28;94248;-42
2023/06/02 07:37:53;;;;;;;75.45;53.17;;;17.40;67.30;;;;;;4955784;28;90303;-41
2023/06/02 07:40:19;;;;;;;76.65;53.33;;;17.50;67.10;;;;;;4936019;28;89908;-39
2023/06/02 07:42:46;;;;;;;75.20;52.97;;;17.60;66.60;;;;;;4935714;28;90135;-39
2023/06/02 07:45:11;;;;;;;76.75;53.33;;;17.60;66.40;;;;;;4930155;28;90567;-40
2023/06/02 07:47:37;;;;;;;75.10;53.40;;;17.60;65.80;;;;;;4934907;28;89665;-42
2023/06/02 07:50:03;;;;;;;78.70;53.55;;;17.70;65.90;;;;;;4938750;28;90120;-39
2023/06/02 07:52:28;;;;;;;78.25;53.33;;;17.70;65.60;;;;;;4939058;28;89810;-39
2023/06/02 07:54:54;;;;;;;75.38;53.17;;;17.70;65.20;;;;;;4930227;28;92205;-40
2023/06/02 07:57:20;;;;;;;76.13;53.92;;;17.80;65.00;;;;;;4938658;28;93935;-50
2023/06/02 07:59:46;;;;;;;77.78;54.13;;;17.80;64.90;;;;;;4933772;28;90002;-47
2023/06/02 08:02:11;;;;;;;84.00;54.45;;;17.90;64.60;;;;;;4938075;28;89474;-48
2023/06/02 08:04:37;;;;;;;81.05;54.53;;;17.90;64.30;;;;;;4941884;28;89624;-46
2023/06/02 08:07:04;;;;;;;79.93;54.58;;;18.00;64.20;;;;;;4939356;28;89669;-50
2023/06/02 08:09:29;;;;;;;83.90;54.40;;;18.10;63.80;;;;;;4935803;28;89586;-47
2023/06/02 08:11:56;;;;;;;79.28;53.67;;;18.20;63.40;;;;;;4938547;28;88756;-49
2023/06/02 08:14:22;;;;;;;89.15;54.00;;;18.30;63.10;;;;;;4937695;28;90505;-49
2023/06/02 08:16:48;;;;;;;84.97;53.85;;;18.30;62.80;;;;;;4935461;28;92036;-48
2023/06/02 08:19:14;;;;;;;80.65;53.67;;;18.30;62.60;;;;;;4934551;28;91353;-50
2023/06/02 08:21:41;;;;;;;83.85;54.35;;;18.30;62.60;;;;;;4932997;28;90008;-45
2023/06/02 08:24:07;;;;;;;83.45;53.65;;;18.40;62.20;;;;;;4933029;28;90259;-50
2023/06/02 08:26:33;;;;;;;83.40;53.90;;;18.40;61.90;;;;;;4930011;28;89486;-51
2023/06/02 08:28:59;;;;;;;76.78;53.17;;;18.30;61.90;;;;;;4933125;28;89604;-50
2023/06/02 08:31:25;;;;;;;81.22;53.30;;;18.30;61.30;;;;;;4932027;28;89511;-50
2023/06/02 08:33:53;;;;;;;76.03;53.05;;;18.40;60.70;;;;;;4932654;28;90328;-52
2023/06/02 08:36:19;;;;;;;80.55;53.55;;;18.40;60.60;;;;;;4933430;28;89142;-52
2023/06/02 08:38:47;;;;;;;76.78;53.50;;;18.40;60.00;;;;;;4936281;28;89797;-52
2023/06/02 08:41:13;;;;;;;76.15;53.33;;;18.50;59.60;;;;;;4939544;28;89722;-52
2023/06/02 08:43:42;;;;;;;76.40;53.15;;;18.50;59.10;;;;;;4934351;28;90777;-48
2023/06/02 08:46:13;;;;;;;75.65;52.88;;;18.60;58.90;;;;;;4937075;28;90175;-54
2023/06/02 08:48:41;;;;;;;75.28;52.85;;;18.70;59.10;;;;;;4935502;28;90449;-55
2023/06/02 08:51:10;;;;;;;82.20;53.33;;;18.70;58.70;;;;;;4934879;28;90694;-51
2023/06/02 08:53:37;;;;;;;80.80;53.25;;;18.80;59.30;;;;;;4938664;28;89847;-54
2023/06/02 08:56:04;;;;;;;83.50;53.42;;;18.80;59.10;;;;;;4932820;28;91652;-41
2023/06/02 08:58:31;;;;;;;79.32;53.20;;;18.60;54.90;;;;;;4930345;28;89919;-39
2023/06/02 09:00:57;;;;;;;76.40;52.92;;;18.50;55.60;;;;;;4936073;28;93613;-41
2023/06/02 09:03:27;;;;;;;78.55;52.97;;;18.60;54.70;;;;;;4937088;28;90679;-41
2023/06/02 09:05:53;;;;;;;75.25;52.63;;;17.60;53.00;;;;;;4927793;28;89395;-39
2023/06/02 09:08:22;;;;;;;77.53;52.88;;;17.50;54.20;;;;;;4940725;28;90991;-41
2023/06/02 09:10:48;;;;;;;74.78;52.70;;;17.70;55.40;;;;;;4940730;28;89599;-43
2023/06/02 09:13:37;;;;;;;76.88;53.05;;;17.90;53.60;;;;;;4941717;28;89580;-40
2023/06/02 09:16:03;;;;;;;81.45;53.17;;;18.20;53.80;;;;;;4937815;28;89957;-42
2023/06/02 09:18:30;;;;;;;75.65;53.08;;;18.10;53.50;;;;;;4936542;28;90427;-41
2023/06/02 09:20:59;;;;;;;77.80;52.60;;;17.90;52.30;;;;;;4934834;28;89513;-41
2023/06/02 09:23:44;;;;;;;77.68;52.42;;;17.60;54.30;;;;;;4938620;28;91316;-41
2023/06/02 09:26:25;;;;;;;74.00;52.60;;;18.00;55.40;;;;;;4944569;28;93036;-42
2023/06/02 09:29:13;;;;;;;75.75;51.90;;;17.20;54.00;;;;;;4938628;28;90171;-43
2023/06/02 09:31:52;;;;;;;74.18;52.10;;;17.10;57.60;;;;;;4942767;28;89662;-44
2023/06/02 09:34:19;;;;;;;75.53;51.95;;;17.60;57.10;;;;;;4925114;28;91683;-43
2023/06/02 09:36:48;;;;;;;76.90;52.20;;;17.80;55.40;;;;;;4932435;28;91311;-41
2023/06/02 09:39:14;;;;;;;75.32;52.20;;;18.10;55.50;;;;;;4939662;28;90003;-45
2023/06/02 09:41:40;;;;;;;75.43;52.25;;;18.20;55.10;;;;;;4936050;28;89457;-42
2023/06/02 09:44:11;;;;;;;75.70;52.33;;;18.30;53.20;;;;;;4941634;28;92632;-42
2023/06/02 09:46:42;;;;;;;75.75;52.80;;;18.40;56.30;;;;;;4944755;28;89608;-42
2023/06/02 09:49:09;;;;;;;77.15;53.03;;;18.70;54.60;;;;;;4945637;28;90309;-41
2023/06/02 09:51:38;;;;;;;74.25;52.53;;;18.70;54.10;;;;;;4941477;28;89307;-42
2023/06/02 09:54:06;;;;;;;77.55;52.80;;;18.70;54.30;;;;;;4940843;28;90425;-41
2023/06/02 09:56:34;;;;;;;78.88;52.83;;;18.50;53.60;;;;;;4948130;28;89973;-43
2023/06/02 09:59:01;;;;;;;78.18;53.20;;;18.70;52.50;;;;;;4945455;28;91011;-41
2023/06/02 10:01:26;;;;;;;77.60;52.50;;;18.90;53.20;;;;;;4944239;28;89602;-41
2023/06/02 10:03:52;;;;;;;74.45;53.08;;;18.80;53.10;;;;;;4942584;28;90303;-42
2023/06/02 10:06:48;;;;;;;75.45;52.63;;;18.40;52.80;;;;;;4944961;28;89657;-41
2023/06/02 10:09:38;;;;;;;75.65;52.63;;;18.50;54.30;;;;;;4943905;28;89452;-41
2023/06/02 10:12:17;;;;;;;84.47;52.92;;;18.10;53.70;;;;;;4943341;28;89414;-42
2023/06/02 10:15:09;;;;;;;79.60;52.38;;;18.40;55.70;;;;;;4943067;28;89981;-42
2023/06/02 10:18:04;;;;;;;83.65;52.65;;;18.50;53.10;;;;;;4943453;28;89571;-43
2023/06/02 10:20:54;;;;;;;75.35;52.05;;;18.10;51.80;;;;;;4939726;28;89271;-41
2023/06/02 10:23:35;;;;;;;76.28;52.13;;;17.50;54.10;;;;;;4944214;28;89496;-43
2023/06/02 10:26:28;;;;;;;73.25;51.97;;;17.50;55.10;;;;;;4948352;28;91061;-42
2023/06/02 10:28:54;;;;;;;73.90;51.50;;;17.30;53.70;;;;;;4947216;28;90787;-41
2023/06/02 10:31:32;;;;;;;74.50;51.63;;;17.20;54.70;;;;;;4941658;28;89552;-40
2023/06/02 10:33:59;;;;;;;74.22;52.13;;;17.40;55.00;;;;;;4943051;28;89826;-42
2023/06/02 10:36:25;;;;;;;71.90;51.40;;;17.60;54.80;;;;;;4943127;28;90993;-42
2023/06/02 10:38:52;;;;;;;78.75;52.28;;;18.00;54.00;;;;;;4960200;28;90565;-41
2023/06/02 10:41:21;;;;;;;73.15;51.85;;;18.00;52.50;;;;;;4946426;28;89502;-41
2023/06/02 10:44:25;;;;;;;77.28;52.63;;;17.90;54.10;;;;;;4945707;28;88881;-41
2023/06/02 10:47:19;;;;;;;76.60;52.10;;;17.90;54.10;;;;;;4946061;28;90177;-40
2023/06/02 10:49:51;;;;;;;78.28;52.22;;;17.90;52.80;;;;;;4945198;28;89885;-41
2023/06/02 10:52:17;;;;;;;74.90;52.17;;;17.80;53.20;;;;;;4937788;28;90955;-42
2023/06/02 10:54:43;;;;;;;76.28;52.35;;;18.00;57.30;;;;;;4944986;28;89407;-44
2023/06/02 10:57:09;;;;;;;73.55;52.50;;;18.00;53.30;;;;;;4941679;28;89682;-40
2023/06/02 10:59:36;;;;;;;75.25;52.15;;;17.80;55.50;;;;;;4944944;28;89565;-42
2023/06/02 11:02:02;;;;;;;74.25;52.28;;;18.20;54.10;;;;;;4941756;28;89962;-40
2023/06/02 11:04:35;;;;;;;76.75;52.25;;;18.10;52.90;;;;;;4944879;28;90581;-40
2023/06/02 11:07:12;;;;;;;78.63;52.47;;;17.80;54.30;;;;;;4945444;28;90477;-40
2023/06/02 11:09:42;;;;;;;75.82;52.33;;;17.90;54.10;;;;;;4944149;28;90099;-42
2023/06/02 11:12:09;;;;;;;79.75;52.92;;;18.20;53.40;;;;;;4942550;28;89774;-41
2023/06/02 11:15:04;;;;;;;78.00;51.92;;;18.00;53.30;;;;;;4945417;28;89584;-41
2023/06/02 11:17:30;;;;;;;73.57;52.17;;;18.00;53.70;;;;;;4946483;28;91240;-40
2023/06/02 11:19:57;;;;;;;74.30;52.25;;;18.00;53.90;;;;;;4943913;28;90484;-42
2023/06/02 11:22:24;;;;;;;75.15;52.38;;;18.00;54.60;;;;;;4947043;28;89742;-40
2023/06/02 11:24:50;;;;;;;79.35;52.40;;;18.20;54.30;;;;;;4943231;28;89400;-40
2023/06/02 11:27:16;;;;;;;72.90;52.05;;;18.30;52.60;;;;;;4946244;28;89996;-40
2023/06/02 11:29:44;;;;;;;74.55;52.20;;;17.70;52.80;;;;;;4944439;28;89794;-41
2023/06/02 11:32:13;;;;;;;78.95;52.50;;;18.00;52.80;;;;;;4945887;28;89396;-41
2023/06/02 11:34:39;;;;;;;75.43;52.42;;;18.30;52.10;;;;;;4939869;28;89846;-42
2023/06/02 11:37:20;;;;;;;75.35;52.75;;;18.30;52.10;;;;;;4941738;28;90834;-43
2023/06/02 11:39:53;;;;;;;76.50;52.33;;;18.40;53.60;;;;;;4962248;28;90337;-41
2023/06/02 11:42:19;;;;;;;76.68;52.60;;;18.40;52.90;;;;;;4941639;28;90678;-41
2023/06/02 11:44:51;;;;;;;73.32;52.35;;;18.20;52.30;;;;;;4945936;28;89440;-44
2023/06/02 11:47:21;;;;;;;77.30;52.35;;;18.00;53.50;;;;;;4944847;28;89829;-41
2023/06/02 11:49:47;;;;;;;79.47;52.55;;;18.00;55.10;;;;;;4943856;28;91533;-41
2023/06/02 11:52:13;;;;;;;77.18;52.40;;;18.10;55.80;;;;;;4939709;28;91710;-42
2023/06/02 11:54:54;;;;;;;78.82;52.08;;;18.20;55.50;;;;;;4943614;28;89625;-42
2023/06/02 11:57:31;;;;;;;78.03;52.63;;;18.30;54.50;;;;;;4934815;28;89872;-42
2023/06/02 12:00:06;;;;;;;76.15;52.15;;;18.30;54.30;;;;;;4932465;28;90088;-41
2023/06/02 12:02:32;;;;;;;76.82;52.25;;;18.80;55.60;;;;;;4937046;28;89891;-43
2023/06/02 12:04:58;;;;;;;79.47;52.80;;;19.10;54.20;;;;;;4936777;28;89875;-41
2023/06/02 12:07:28;;;;;;;79.40;52.90;;;19.30;50.20;;;;;;4933333;28;95344;-41
2023/06/02 12:09:54;;;;;;;81.28;52.50;;;19.00;51.30;;;;;;4933278;28;91129;-41
2023/06/02 12:12:20;;;;;;;76.05;52.47;;;19.00;51.10;;;;;;4942897;28;89704;-41
2023/06/02 12:14:45;;;;;;;75.22;51.90;;;18.60;51.40;;;;;;4936193;28;89865;-43
2023/06/02 12:17:11;;;;;;;74.55;52.22;;;18.50;52.60;;;;;;4926372;28;92197;-41
2023/06/02 12:19:37;;;;;;;80.63;52.40;;;18.30;54.30;;;;;;4937757;28;93078;-40
2023/06/02 12:22:13;;;;;;;77.35;52.45;;;18.40;54.40;;;;;;4935973;28;90070;-41
2023/06/02 12:24:39;;;;;;;80.75;52.20;;;18.50;53.00;;;;;;4930195;28;93671;-42
2023/06/02 12:27:05;;;;;;;76.68;52.22;;;18.40;53.20;;;;;;4940432;28;89905;-44
2023/06/02 12:29:32;;;;;;;74.45;52.13;;;18.40;54.30;;;;;;4959821;22;89146;-73
2023/06/02 12:32:06;;;;;;;80.57;52.63;;;18.60;54.30;;;;;;4964849;28;93931;-73